Terminal Aerodrome Forecast
Issued by NWS Buffalo, NY

Home | Current Version | Previous Version | Text Only | Print | Product List | Glossary On
Versions: 1 2 3 4 5 6 7 8 9 10 11 12 13 14 15 16 17 18 19 20
000
FTUS41 KBUF 241449 AAA
TAFBUF
TAF AMD
KBUF 241449Z 2415/2512 23012KT P6SM BKN250
     FM241700 23013G20KT P6SM SCT120
     FM242100 23013G24KT P6SM BKN120
     FM250000 20007KT P6SM BKN120
     FM250300 18008KT P6SM OVC090=

USA.gov is the U.S. government's official web portal to all federal, state and local government web resources and services.